createdAt,value
2022-10-02T00:01:05.202Z,17.52
2022-10-02T00:03:38.745Z,15.88
2022-10-02T00:06:14.848Z,15.15
2022-10-02T00:08:42.199Z,12.57
2022-10-02T00:11:17.748Z,11.55
2022-10-02T00:13:57.622Z,12.18
2022-10-02T00:16:41.566Z,10.45
2022-10-02T00:19:13.957Z,8.80
2022-10-02T00:21:56.699Z,10.15
2022-10-02T00:25:06.926Z,8.00
2022-10-02T00:27:39.014Z,7.13
2022-10-02T00:30:06.355Z,7.60
2022-10-02T00:32:49.986Z,7.60
2022-10-02T00:35:48.735Z,8.07
2022-10-02T00:38:37.283Z,7.25
2022-10-02T00:41:28.267Z,7.60
2022-10-02T00:44:38.921Z,6.63
2022-10-02T00:47:35.670Z,7.47
2022-10-02T00:50:46.684Z,6.85
2022-10-02T00:53:40.738Z,6.50
2022-10-02T00:56:41.395Z,7.18
2022-10-02T00:59:20.040Z,6.03
2022-10-02T01:01:58.706Z,8.57
2022-10-02T01:04:37.662Z,6.00
2022-10-02T01:07:07.836Z,10.40
2022-10-02T01:09:34.913Z,8.75
2022-10-02T01:12:01.959Z,10.23
2022-10-02T01:14:36.486Z,9.00
2022-10-02T01:17:05.318Z,8.25
2022-10-02T01:19:38.972Z,7.43
2022-10-02T01:22:15.705Z,6.43
2022-10-02T01:24:48.520Z,6.05
2022-10-02T01:27:15.860Z,9.32
2022-10-02T01:29:46.198Z,7.97
2022-10-02T01:32:12.964Z,7.78
2022-10-02T01:34:39.932Z,6.95
2022-10-02T01:37:07.530Z,7.55
2022-10-02T01:39:34.921Z,7.03
2022-10-02T01:42:01.678Z,6.95
2022-10-02T01:44:30.004Z,6.50
2022-10-02T01:47:08.129Z,7.93
2022-10-02T01:50:06.441Z,7.07
2022-10-02T01:52:46.426Z,7.60
2022-10-02T01:55:40.941Z,7.68
2022-10-02T01:58:36.761Z,8.98
2022-10-02T02:04:03.359Z,7.85
2022-10-02T02:06:38.029Z,9.18
2022-10-02T02:09:15.700Z,9.45
2022-10-02T02:11:54.908Z,9.98
2022-10-02T02:14:31.313Z,10.25
2022-10-02T02:17:31.510Z,9.75
2022-10-02T02:20:06.250Z,10.18
2022-10-02T02:22:43.299Z,8.90
2022-10-02T02:25:22.120Z,10.70
2022-10-02T02:27:57.072Z,9.90
2022-10-02T02:32:58.539Z,11.43
2022-10-02T02:35:35.643Z,12.27
2022-10-02T02:38:10.058Z,13.23
2022-10-02T02:40:40.238Z,14.57
2022-10-02T02:43:12.332Z,17.10
2022-10-02T02:46:08.906Z,17.15
2022-10-02T02:48:44.881Z,16.15
2022-10-02T02:51:19.080Z,15.60
2022-10-02T02:53:53.888Z,16.23
2022-10-02T02:56:21.660Z,17.02
2022-10-02T02:59:01.415Z,19.60
2022-10-02T03:01:28.295Z,18.02
2022-10-02T03:03:57.365Z,20.38
2022-10-02T03:06:37.802Z,18.42
2022-10-02T03:09:07.328Z,20.02
2022-10-02T03:12:19.675Z,19.52
2022-10-02T03:15:13.654Z,20.55
2022-10-02T03:17:49.497Z,19.70
2022-10-02T03:20:23.564Z,21.67
2022-10-02T03:22:54.403Z,19.25
2022-10-02T03:25:24.257Z,20.73
2022-10-02T03:28:50.623Z,21.25
2022-10-02T03:31:14.453Z,22.20
2022-10-02T03:33:42.013Z,22.33
2022-10-02T03:36:12.046Z,21.42
2022-10-02T03:38:39.412Z,21.17
2022-10-02T03:41:06.297Z,23.50
2022-10-02T03:43:32.993Z,21.65
2022-10-02T03:45:59.709Z,20.50
2022-10-02T03:48:26.446Z,20.55
2022-10-02T03:50:53.869Z,22.50
2022-10-02T03:53:24.437Z,21.80
2022-10-02T03:56:03.150Z,22.23
2022-10-02T03:58:29.986Z,21.02
2022-10-02T04:01:07.767Z,22.55
2022-10-02T04:03:47.576Z,22.00
2022-10-02T04:06:37.274Z,22.90
2022-10-02T04:09:12.216Z,21.58
2022-10-02T04:11:43.762Z,21.48
2022-10-02T04:14:20.588Z,21.35
2022-10-02T04:17:10.101Z,20.55
2022-10-02T04:19:49.423Z,20.70
2022-10-02T04:22:24.301Z,20.90
2022-10-02T04:25:09.179Z,21.42
2022-10-02T04:28:01.472Z,21.02
2022-10-02T04:30:30.117Z,21.08
2022-10-02T04:33:17.441Z,20.55
2022-10-02T04:36:00.241Z,21.98
2022-10-02T04:39:04.861Z,21.35
2022-10-02T04:41:44.070Z,22.80
2022-10-02T04:44:48.701Z,23.25
2022-10-02T04:47:43.139Z,22.05
2022-10-02T04:50:31.019Z,22.85
2022-10-02T04:53:38.148Z,28.35
2022-10-02T04:56:29.804Z,23.77
2022-10-02T04:59:21.044Z,25.10
2022-10-02T05:02:15.650Z,22.23
2022-10-02T05:05:04.236Z,23.25
2022-10-02T05:07:57.893Z,20.13
2022-10-02T05:10:42.432Z,20.65
2022-10-02T05:13:37.061Z,25.33
2022-10-02T05:16:32.928Z,27.00
2022-10-02T05:19:37.006Z,31.00
2022-10-02T05:22:40.792Z,32.60
2022-10-02T05:25:19.371Z,34.72
2022-10-02T05:28:13.483Z,29.20
2022-10-02T05:31:25.830Z,32.00
2022-10-02T05:34:19.861Z,31.27
2022-10-02T05:36:59.543Z,28.70
2022-10-02T05:39:42.455Z,27.55
2022-10-02T05:42:31.969Z,30.30
2022-10-02T05:45:25.417Z,30.45
2022-10-02T05:48:01.406Z,31.23
2022-10-02T05:50:34.226Z,33.60
2022-10-02T05:53:24.139Z,31.13
2022-10-02T05:55:58.809Z,34.80
2022-10-02T05:58:37.628Z,33.63
2022-10-02T06:01:07.476Z,31.52
2022-10-02T06:03:44.095Z,34.50
2022-10-02T06:06:26.414Z,33.13
2022-10-02T06:09:03.267Z,34.20
2022-10-02T06:11:40.084Z,33.97
2022-10-02T06:14:32.072Z,34.33
2022-10-02T06:17:01.545Z,34.65
2022-10-02T06:19:44.816Z,35.75
2022-10-02T06:22:18.862Z,35.58
2022-10-02T06:24:53.638Z,34.72
2022-10-02T06:27:38.304Z,35.08
2022-10-02T06:30:09.482Z,33.03
2022-10-02T06:32:51.447Z,34.50
2022-10-02T06:35:33.233Z,37.95
2022-10-02T06:38:04.741Z,33.90
2022-10-02T06:40:42.666Z,35.55
2022-10-02T06:43:09.357Z,37.47
2022-10-02T06:46:02.325Z,36.22
2022-10-02T06:48:52.897Z,33.33
2022-10-02T06:51:42.660Z,44.83
2022-10-02T06:54:29.302Z,36.53
2022-10-02T06:57:20.731Z,35.97
2022-10-02T07:00:16.422Z,39.33
2022-10-02T07:03:06.509Z,36.80
2022-10-02T07:05:54.238Z,31.92
2022-10-02T07:08:32.833Z,37.45
2022-10-02T07:11:14.610Z,33.50
2022-10-02T07:13:44.364Z,33.30
2022-10-02T07:16:23.600Z,31.30
2022-10-02T07:19:20.939Z,33.28
2022-10-02T07:22:43.968Z,30.23
2022-10-02T07:25:28.738Z,32.10
2022-10-02T07:28:18.551Z,29.85
2022-10-02T07:30:57.880Z,31.13
2022-10-02T07:33:48.786Z,29.75
2022-10-02T07:36:39.285Z,29.08
2022-10-02T07:39:42.009Z,29.85
2022-10-02T07:42:26.739Z,32.78
2022-10-02T07:45:21.584Z,27.75
2022-10-02T07:47:58.927Z,29.13
2022-10-02T07:50:46.429Z,29.10
2022-10-02T07:53:28.981Z,28.45
2022-10-02T07:55:56.728Z,28.17
2022-10-02T07:58:34.532Z,25.33
2022-10-02T08:01:05.814Z,27.70
2022-10-02T08:03:39.246Z,27.65
2022-10-02T08:06:06.913Z,28.80
2022-10-02T08:09:05.896Z,25.90
2022-10-02T08:11:38.814Z,27.42
2022-10-02T08:14:11.420Z,25.23
2022-10-02T08:16:48.851Z,24.70
2022-10-02T08:19:29.811Z,26.88
2022-10-02T08:22:00.838Z,23.77
2022-10-02T08:24:50.248Z,28.75
2022-10-02T08:27:24.473Z,28.25
2022-10-02T08:30:02.200Z,28.38
2022-10-02T08:32:34.899Z,28.15
2022-10-02T08:35:11.509Z,28.52
2022-10-02T08:38:12.300Z,27.65
2022-10-02T08:41:11.213Z,25.38
2022-10-02T08:44:06.208Z,26.60
2022-10-02T08:46:58.459Z,21.10
2022-10-02T08:49:37.145Z,22.23
2022-10-02T08:52:34.288Z,21.92
2022-10-02T08:55:19.270Z,20.88
2022-10-02T08:58:23.097Z,20.08
2022-10-02T09:00:58.063Z,22.50
2022-10-02T09:04:03.920Z,21.77
2022-10-02T09:06:45.627Z,20.35
2022-10-02T09:09:40.815Z,17.55
2022-10-02T09:12:26.733Z,16.10
2022-10-02T09:15:07.574Z,15.68
2022-10-02T09:17:46.979Z,14.23
2022-10-02T09:20:42.344Z,13.07
2022-10-02T09:23:38.285Z,16.00
2022-10-02T09:26:19.886Z,16.20
2022-10-02T09:29:42.115Z,17.02
2022-10-02T09:32:50.986Z,17.88
2022-10-02T09:35:24.373Z,19.45
2022-10-02T09:38:29.595Z,20.15
2022-10-02T09:41:42.942Z,21.13
2022-10-02T09:44:16.840Z,20.40
2022-10-02T09:47:02.831Z,22.08
2022-10-02T09:49:57.395Z,21.15
2022-10-02T09:52:50.176Z,22.08
2022-10-02T09:55:22.634Z,22.27
2022-10-02T09:58:20.234Z,22.23
2022-10-02T10:01:28.649Z,22.17
2022-10-02T10:03:58.093Z,21.52
2022-10-02T10:06:47.119Z,21.48
2022-10-02T10:09:35.101Z,20.48
2022-10-02T10:12:49.303Z,21.98
2022-10-02T10:15:19.804Z,23.92
2022-10-02T10:18:11.227Z,24.42
2022-10-02T10:21:00.768Z,21.08
2022-10-02T10:23:52.799Z,23.00
2022-10-02T10:26:46.729Z,20.67
2022-10-02T10:29:45.264Z,16.77
2022-10-02T10:32:51.130Z,17.67
2022-10-02T10:35:25.745Z,17.58
2022-10-02T10:38:32.787Z,17.55
2022-10-02T10:41:29.428Z,19.70
2022-10-02T10:44:33.749Z,19.00
2022-10-02T10:47:22.426Z,20.67
2022-10-02T10:50:17.411Z,20.02
2022-10-02T10:52:56.307Z,20.00
2022-10-02T10:55:59.594Z,20.90
2022-10-02T10:58:47.755Z,20.15
2022-10-02T11:01:18.713Z,21.85
2022-10-02T11:04:27.437Z,19.63
2022-10-02T11:07:15.481Z,21.00
2022-10-02T11:09:57.382Z,19.55
2022-10-02T11:12:39.091Z,19.58
2022-10-02T11:15:20.769Z,20.42
2022-10-02T11:18:00.703Z,17.65
2022-10-02T11:20:52.160Z,20.58
2022-10-02T11:23:56.411Z,18.23
2022-10-02T11:26:30.882Z,17.65
2022-10-02T11:29:40.081Z,21.25
2022-10-02T11:32:20.800Z,18.92
2022-10-02T11:35:03.717Z,18.83
2022-10-02T11:37:45.424Z,20.05
2022-10-02T11:40:41.892Z,20.27
2022-10-02T11:43:46.548Z,21.75
2022-10-02T11:46:25.397Z,21.52
2022-10-02T11:49:10.132Z,20.48
2022-10-02T11:51:53.836Z,21.33
2022-10-02T11:54:35.169Z,20.77
2022-10-02T11:57:08.795Z,21.30
2022-10-02T12:00:04.887Z,20.10
2022-10-02T12:02:42.148Z,19.05
2022-10-02T12:05:21.658Z,20.77
2022-10-02T12:08:14.801Z,21.70
2022-10-02T12:11:11.885Z,21.95
2022-10-02T12:14:02.915Z,22.35
2022-10-02T12:16:48.616Z,21.33
2022-10-02T12:19:39.965Z,22.77
2022-10-02T12:22:40.582Z,22.60
2022-10-02T12:25:59.081Z,22.67
2022-10-02T12:28:45.744Z,22.35
2022-10-02T12:31:19.012Z,22.45
2022-10-02T12:34:14.249Z,21.65
2022-10-02T12:36:56.385Z,22.35
2022-10-02T12:39:52.764Z,22.52
2022-10-02T12:42:50.003Z,21.67
2022-10-02T12:45:58.616Z,21.38
2022-10-02T12:48:45.883Z,21.48
2022-10-02T12:51:46.482Z,22.25
2022-10-02T12:54:35.017Z,22.52
2022-10-02T12:57:43.478Z,21.30
2022-10-02T13:00:16.220Z,21.67
2022-10-02T13:03:21.077Z,21.27
2022-10-02T13:06:06.790Z,22.67
2022-10-02T13:08:48.154Z,21.50
2022-10-02T13:11:38.487Z,22.05
2022-10-02T13:14:25.069Z,20.83
2022-10-02T13:17:09.705Z,22.10
2022-10-02T13:19:46.398Z,21.63
2022-10-02T13:22:39.936Z,22.25
2022-10-02T13:25:49.039Z,22.52
2022-10-02T13:28:49.842Z,20.90
2022-10-02T13:31:27.741Z,20.95
2022-10-02T13:34:18.321Z,20.88
2022-10-02T13:37:02.661Z,19.63
2022-10-02T13:39:59.315Z,19.83
2022-10-02T13:42:51.450Z,21.10
2022-10-02T13:45:27.060Z,20.17
2022-10-02T13:47:59.649Z,20.52
2022-10-02T13:50:50.125Z,20.63
2022-10-02T13:53:31.560Z,19.65
2022-10-02T13:56:22.577Z,19.75
2022-10-02T13:58:57.472Z,21.48
2022-10-02T14:01:53.899Z,20.15
2022-10-02T14:04:30.757Z,21.10
2022-10-02T14:07:17.800Z,20.17
2022-10-02T14:09:54.621Z,20.75
2022-10-02T14:12:39.798Z,20.50
2022-10-02T14:15:15.681Z,21.50
2022-10-02T14:18:16.961Z,20.42
2022-10-02T14:20:56.305Z,19.83
2022-10-02T14:23:34.899Z,19.77
2022-10-02T14:26:51.938Z,18.70
2022-10-02T14:29:37.091Z,19.00
2022-10-02T14:32:15.709Z,19.92
2022-10-02T14:35:12.246Z,21.73
2022-10-02T14:38:10.047Z,20.50
2022-10-02T14:40:55.969Z,20.33
2022-10-02T14:43:54.440Z,21.20
2022-10-02T14:46:29.023Z,20.48
2022-10-02T14:49:10.829Z,20.58
2022-10-02T14:52:09.912Z,19.20
2022-10-02T14:54:49.150Z,18.83
2022-10-02T14:57:27.234Z,18.75
2022-10-02T15:00:16.922Z,19.42
2022-10-02T15:03:31.682Z,19.45
2022-10-02T15:06:21.656Z,19.00
2022-10-02T15:08:57.056Z,18.67
2022-10-02T15:11:51.695Z,19.00
2022-10-02T15:14:50.302Z,19.38
2022-10-02T15:17:55.533Z,19.55
2022-10-02T15:20:25.976Z,19.35
2022-10-02T15:23:13.149Z,18.70
2022-10-02T15:26:11.176Z,19.52
2022-10-02T15:29:29.446Z,19.45
2022-10-02T15:32:29.204Z,19.40
2022-10-02T15:35:23.211Z,19.50
2022-10-02T15:38:01.595Z,19.42
2022-10-02T15:40:38.344Z,17.73
2022-10-02T15:43:11.976Z,19.08
2022-10-02T15:46:03.490Z,18.85
2022-10-02T15:49:01.186Z,18.45
2022-10-02T15:52:04.929Z,18.85
2022-10-02T15:54:46.041Z,18.30
2022-10-02T15:57:29.080Z,17.35
2022-10-02T16:00:03.812Z,17.30
2022-10-02T16:03:02.656Z,17.70
2022-10-02T16:05:47.460Z,18.20
2022-10-02T16:08:27.353Z,18.90
2022-10-02T16:11:25.710Z,17.17
2022-10-02T16:14:01.683Z,17.63
2022-10-02T16:17:05.935Z,17.58
2022-10-02T16:20:09.733Z,18.05
2022-10-02T16:22:56.922Z,18.30
2022-10-02T16:25:48.298Z,19.10
2022-10-02T16:28:46.851Z,17.95
2022-10-02T16:31:29.843Z,18.52
2022-10-02T16:34:15.704Z,17.80
2022-10-02T16:36:51.509Z,17.63
2022-10-02T16:39:24.009Z,17.80
2022-10-02T16:42:12.697Z,17.95
2022-10-02T16:44:48.214Z,17.42
2022-10-02T16:47:35.659Z,17.20
2022-10-02T16:50:16.348Z,18.08
2022-10-02T16:52:53.814Z,18.17
2022-10-02T16:55:34.662Z,16.42
2022-10-02T16:58:26.223Z,16.38
2022-10-02T17:01:02.128Z,15.57
2022-10-02T17:03:41.456Z,14.93
2022-10-02T17:06:26.976Z,15.70
2022-10-02T17:09:17.117Z,16.63
2022-10-02T17:12:23.497Z,17.35
2022-10-02T17:15:17.056Z,17.05
2022-10-02T17:17:51.651Z,16.50
2022-10-02T17:20:20.571Z,17.55
2022-10-02T17:23:11.909Z,17.50
2022-10-02T17:26:07.237Z,18.13
2022-10-02T17:28:57.204Z,16.83
2022-10-02T17:31:56.465Z,17.40
2022-10-02T17:34:31.659Z,17.70
2022-10-02T17:37:09.676Z,18.30
2022-10-02T17:39:44.089Z,17.20
2022-10-02T17:42:22.486Z,17.83
2022-10-02T17:44:54.597Z,17.40
2022-10-02T17:47:59.583Z,17.00
2022-10-02T17:50:34.030Z,16.00
2022-10-02T17:53:36.823Z,16.50
2022-10-02T17:56:51.848Z,17.13
2022-10-02T17:59:58.111Z,16.67
2022-10-02T18:02:46.319Z,16.27
2022-10-02T18:05:43.145Z,17.48
2022-10-02T18:08:46.237Z,17.13
2022-10-02T18:11:34.435Z,17.65
2022-10-02T18:14:24.777Z,18.00
2022-10-02T18:17:12.562Z,17.27
2022-10-02T18:19:42.756Z,17.20
2022-10-02T18:22:38.214Z,16.20
2022-10-02T18:25:29.752Z,16.50
2022-10-02T18:28:27.360Z,16.48
2022-10-02T18:31:12.933Z,17.45
2022-10-02T18:36:52.425Z,17.20
2022-10-02T18:39:40.755Z,16.00
2022-10-02T18:42:16.640Z,17.15
2022-10-02T18:44:51.362Z,17.40
2022-10-02T18:47:41.931Z,16.13
2022-10-02T18:50:27.828Z,16.75
2022-10-02T18:53:32.671Z,16.83
2022-10-02T18:56:08.610Z,16.85
2022-10-02T18:59:13.792Z,15.93
2022-10-02T19:01:56.589Z,16.42
2022-10-02T19:04:30.577Z,16.45
2022-10-02T19:07:16.465Z,16.27
2022-10-02T19:09:43.411Z,14.95
2022-10-02T19:12:24.782Z,16.35
2022-10-02T19:14:55.964Z,16.52
2022-10-02T19:17:27.988Z,16.20
2022-10-02T19:19:55.713Z,16.67
2022-10-02T19:22:30.310Z,16.60
2022-10-02T19:25:16.203Z,15.98
2022-10-02T19:27:49.697Z,16.17
2022-10-02T19:30:26.184Z,16.02
2022-10-02T19:32:58.724Z,15.55
2022-10-02T19:35:32.269Z,15.48
2022-10-02T19:38:07.623Z,15.98
2022-10-02T19:40:36.125Z,14.85
2022-10-02T19:43:16.285Z,15.52
2022-10-02T19:45:48.369Z,14.80
2022-10-02T19:48:18.613Z,15.88
2022-10-02T19:50:51.250Z,15.30
2022-10-02T19:53:38.944Z,15.38
2022-10-02T19:56:15.521Z,16.20
2022-10-02T19:58:45.304Z,16.13
2022-10-02T20:01:20.422Z,16.25
2022-10-02T20:03:50.274Z,14.43
2022-10-02T20:06:21.812Z,14.43
2022-10-02T20:09:05.523Z,15.50
2022-10-02T20:11:38.945Z,14.73
2022-10-02T20:14:21.248Z,14.77
2022-10-02T20:17:09.773Z,14.13
2022-10-02T20:19:45.057Z,13.48
2022-10-02T20:22:34.402Z,13.32
2022-10-02T20:25:10.960Z,13.15
2022-10-02T20:27:42.054Z,13.05
2022-10-02T20:30:17.772Z,13.07
2022-10-02T20:33:02.355Z,13.70
2022-10-02T20:35:40.083Z,13.57
2022-10-02T20:38:19.877Z,14.25
2022-10-02T20:40:53.019Z,12.35
2022-10-02T20:43:24.667Z,13.07
2022-10-02T20:46:20.171Z,11.85
2022-10-02T20:49:11.793Z,12.30
2022-10-02T20:52:14.996Z,12.95
2022-10-02T20:54:53.926Z,12.68
2022-10-02T20:58:00.845Z,12.63
2022-10-02T21:00:38.683Z,11.13
2022-10-02T21:03:22.663Z,10.73
2022-10-02T21:06:26.506Z,10.82
2022-10-02T21:09:25.165Z,10.18
2022-10-02T21:12:27.905Z,10.60
2022-10-02T21:15:09.713Z,12.68
2022-10-02T21:18:10.966Z,11.45
2022-10-02T21:20:51.221Z,11.27
2022-10-02T21:24:14.072Z,11.32
2022-10-02T21:27:02.168Z,12.07
2022-10-02T21:29:31.970Z,10.70
2022-10-02T21:32:43.189Z,11.07
2022-10-02T21:35:36.138Z,10.75
2022-10-02T21:38:27.923Z,11.63
2022-10-02T21:41:04.103Z,13.13
2022-10-02T21:44:04.982Z,12.23
2022-10-02T21:46:54.527Z,12.32
2022-10-02T21:49:43.075Z,10.35
2022-10-02T21:52:25.748Z,9.95
2022-10-02T21:55:26.829Z,9.95
2022-10-02T21:58:17.692Z,9.88
2022-10-02T22:01:15.385Z,9.50
2022-10-02T22:04:00.142Z,9.10
2022-10-02T22:06:36.547Z,10.98
2022-10-02T22:09:29.102Z,8.88
2022-10-02T22:12:20.587Z,8.82
2022-10-02T22:15:06.517Z,8.35
2022-10-02T22:17:57.410Z,8.75
2022-10-02T22:21:00.981Z,9.13
2022-10-02T22:23:48.762Z,8.35
2022-10-02T22:26:52.114Z,8.80
2022-10-02T22:29:27.255Z,8.43
2022-10-02T22:32:34.785Z,9.13
2022-10-02T22:35:07.480Z,8.20
2022-10-02T22:37:40.012Z,8.93
2022-10-02T22:40:14.016Z,9.40
2022-10-02T22:42:52.644Z,9.10
2022-10-02T22:45:26.537Z,9.00
2022-10-02T22:48:03.963Z,9.27
2022-10-02T22:50:39.709Z,9.27
2022-10-02T22:53:24.250Z,9.55
2022-10-02T22:55:53.999Z,8.57
2022-10-02T22:58:23.357Z,10.30
2022-10-02T23:01:08.166Z,8.02
2022-10-02T23:03:43.892Z,9.35
2022-10-02T23:06:50.211Z,8.15
2022-10-02T23:09:38.374Z,8.40
2022-10-02T23:12:15.088Z,7.97
2022-10-02T23:14:56.531Z,8.20
2022-10-02T23:17:36.839Z,8.48
2022-10-02T23:20:23.191Z,7.63
2022-10-02T23:22:56.114Z,8.25
2022-10-02T23:25:37.654Z,7.75
2022-10-02T23:28:36.433Z,10.18
2022-10-02T23:31:15.309Z,7.88
2022-10-02T23:33:50.954Z,11.07
2022-10-02T23:36:30.900Z,7.90
2022-10-02T23:39:09.600Z,9.30
2022-10-02T23:41:47.042Z,8.25
2022-10-02T23:44:41.412Z,7.97
2022-10-02T23:47:14.724Z,7.90
2022-10-02T23:49:52.280Z,8.98
2022-10-02T23:52:29.989Z,8.18
2022-10-02T23:55:06.170Z,9.23
2022-10-02T23:57:54.265Z,9.13
